Time;durP1;ratioP1;P1;durP2;ratioP2;P2;SDS_P1;SDS_P2;PMS_P1;PMS_P2;Temp;Humidity;BMP_temperature;BMP_pressure;BME280_temperature;BME280_humidity;BME280_pressure;Samples;Min_cycle;Max_cycle;Signal;HPM_P1;HPM_P2
2023/03/15 00:01:45;;;;;;;0.50;0.25;;;9.10;97.90;;;;;;5087487;28;20575;-82
2023/03/15 00:04:14;;;;;;;0.65;0.20;;;8.90;99.20;;;;;;5084851;28;20032;-80
2023/03/15 00:06:39;;;;;;;1.13;0.68;;;8.50;99.50;;;;;;5091017;28;20043;-80
2023/03/15 00:09:05;;;;;;;0.57;0.20;;;8.80;98.40;;;;;;5086730;28;20028;-82
2023/03/15 00:11:31;;;;;;;0.30;0.13;;;9.30;95.60;;;;;;5088643;28;20035;-81
2023/03/15 00:13:57;;;;;;;2.22;0.22;;;9.40;96.80;;;;;;5093025;28;20028;-80
2023/03/15 00:16:25;;;;;;;0.30;0.10;;;8.50;99.30;;;;;;5090303;28;20069;-80
2023/03/15 00:18:55;;;;;;;2.20;0.32;;;8.60;97.80;;;;;;5092816;28;20024;-81
2023/03/15 00:21:21;;;;;;;2.45;0.40;;;8.50;98.90;;;;;;5093331;28;20039;-81
2023/03/15 00:23:47;;;;;;;0.35;0.10;;;8.10;99.60;;;;;;5093030;28;20500;-81
2023/03/15 00:26:14;;;;;;;1.77;0.17;;;8.20;99.10;;;;;;5087397;28;20062;-80
2023/03/15 00:28:39;;;;;;;0.60;0.30;;;8.30;98.90;;;;;;5103343;28;20028;-81
2023/03/15 00:31:18;;;;;;;0.57;0.20;;;8.30;99.20;;;;;;5091961;28;20386;-80
2023/03/15 00:33:44;;;;;;;0.38;0.30;;;8.40;97.80;;;;;;5087870;28;20134;-81
2023/03/15 00:36:11;;;;;;;2.53;0.35;;;8.20;99.60;;;;;;5091962;28;20111;-80
2023/03/15 00:38:39;;;;;;;1.02;0.30;;;8.10;99.70;;;;;;5097297;28;20123;-81
2023/03/15 00:41:14;;;;;;;1.77;0.28;;;7.80;99.90;;;;;;5095105;28;20055;-80
2023/03/15 00:43:41;;;;;;;2.20;0.20;;;8.10;98.90;;;;;;5089318;28;20367;-81
2023/03/15 00:46:07;;;;;;;0.20;0.05;;;7.80;99.60;;;;;;5090854;28;20027;-81
2023/03/15 00:48:36;;;;;;;0.55;0.10;;;7.90;99.20;;;;;;5095153;28;20428;-81
2023/03/15 00:51:13;;;;;;;0.10;0.10;;;8.00;98.30;;;;;;5099887;28;20031;-81
2023/03/15 00:53:41;;;;;;;0.45;0.20;;;7.90;99.10;;;;;;5096685;28;20137;-80
2023/03/15 00:56:10;;;;;;;0.85;0.25;;;7.90;99.10;;;;;;5101021;28;20020;-80
2023/03/15 00:58:36;;;;;;;0.73;0.10;;;8.10;98.30;;;;;;5097590;28;20497;-80
2023/03/15 01:01:25;;;;;;;0.80;0.38;;;7.90;98.90;;;;;;5097941;28;20098;-81
2023/03/15 01:03:51;;;;;;;1.10;0.63;;;7.80;99.80;;;;;;5087839;27;20040;-81
2023/03/15 01:06:20;;;;;;;0.25;0.20;;;8.00;98.00;;;;;;5097837;28;20380;-82
2023/03/15 01:08:46;;;;;;;0.35;0.10;;;8.00;97.90;;;;;;5091320;28;20040;-80
2023/03/15 01:11:15;;;;;;;1.20;0.45;;;8.10;97.40;;;;;;5104223;28;20690;-80
2023/03/15 01:13:41;;;;;;;0.50;0.15;;;8.20;97.20;;;;;;5098978;28;20070;-80
2023/03/15 01:16:08;;;;;;;0.05;0.00;;;7.90;97.60;;;;;;5103064;28;20068;-80
2023/03/15 01:18:34;;;;;;;0.40;0.20;;;8.40;96.10;;;;;;5095753;28;20435;-80
2023/03/15 01:20:59;;;;;;;0.17;0.05;;;8.20;97.20;;;;;;5092032;28;20077;-80
2023/03/15 01:23:25;;;;;;;0.35;0.00;;;8.00;96.90;;;;;;5090961;28;20031;-81
2023/03/15 01:25:51;;;;;;;0.10;0.10;;;8.50;95.70;;;;;;5100147;28;20032;-80
2023/03/15 01:28:17;;;;;;;0.80;0.22;;;8.20;96.50;;;;;;5095249;28;20118;-80
2023/03/15 01:30:50;;;;;;;1.95;0.20;;;8.00;96.40;;;;;;5106151;28;20100;-81
2023/03/15 01:33:16;;;;;;;0.20;0.10;;;7.80;97.90;;;;;;5095176;28;20371;-81
2023/03/15 01:35:42;;;;;;;0.03;0.00;;;7.50;98.10;;;;;;5101918;28;20439;-81
2023/03/15 01:38:07;;;;;;;2.25;0.63;;;7.60;97.50;;;;;;5091948;28;20044;-81
2023/03/15 01:40:33;;;;;;;0.57;0.17;;;7.60;97.50;;;;;;5098981;28;20023;-79
2023/03/15 01:43:05;;;;;;;0.15;0.13;;;8.00;95.40;;;;;;5098585;28;20038;-81
2023/03/15 01:45:58;;;;;;;0.20;0.10;;;8.20;95.50;;;;;;5092095;28;20550;-81
2023/03/15 01:48:38;;;;;;;0.10;0.00;;;8.10;95.40;;;;;;5092144;28;20147;-80
2023/03/15 01:51:12;;;;;;;0.17;0.03;;;8.20;95.40;;;;;;5092009;28;20024;-80
2023/03/15 01:53:43;;;;;;;1.75;0.20;;;8.80;92.10;;;;;;5098450;28;20038;-81
2023/03/15 01:56:10;;;;;;;0.43;0.00;;;8.70;93.60;;;;;;5103770;28;20859;-80
2023/03/15 01:58:39;;;;;;;0.00;0.00;;;8.40;93.40;;;;;;5097984;28;20032;-81
2023/03/15 02:01:06;;;;;;;0.28;0.08;;;9.20;91.70;;;;;;5090718;28;20020;-80
2023/03/15 02:03:38;;;;;;;0.08;0.00;;;8.90;91.40;;;;;;5093633;28;20785;-81
2023/03/15 02:06:08;;;;;;;0.10;0.00;;;9.20;90.00;;;;;;5089946;28;20028;-80
2023/03/15 02:08:40;;;;;;;0.22;0.00;;;9.30;90.20;;;;;;5092540;28;20066;-81
2023/03/15 02:11:06;;;;;;;0.10;0.05;;;9.30;90.00;;;;;;5096569;28;20024;-81
2023/03/15 02:13:33;;;;;;;0.40;0.10;;;9.40;90.40;;;;;;5093232;27;20054;-81
2023/03/15 02:15:59;;;;;;;0.25;0.15;;;9.10;91.20;;;;;;5089825;28;20028;-80
2023/03/15 02:18:25;;;;;;;0.00;0.00;;;8.40;92.50;;;;;;5096889;28;20031;-80
2023/03/15 02:21:01;;;;;;;0.85;0.10;;;8.30;92.80;;;;;;5099736;28;20038;-81
2023/03/15 02:23:28;;;;;;;0.00;0.00;;;7.90;94.10;;;;;;5097785;27;20036;-80
2023/03/15 02:26:12;;;;;;;0.40;0.13;;;8.40;91.90;;;;;;5094389;28;20023;-81
2023/03/15 02:28:38;;;;;;;0.52;0.10;;;8.10;93.50;;;;;;5091223;27;20122;-80
2023/03/15 02:31:04;;;;;;;0.10;0.00;;;8.00;93.30;;;;;;5092476;28;20084;-80
2023/03/15 02:33:37;;;;;;;3.40;0.20;;;7.50;94.90;;;;;;5092475;28;20025;-80
2023/03/15 02:36:21;;;;;;;0.25;0.10;;;7.90;94.10;;;;;;5092090;28;20032;-81
2023/03/15 02:38:48;;;;;;;0.17;0.15;;;7.80;93.80;;;;;;5096237;28;20043;-80
2023/03/15 02:41:18;;;;;;;0.15;0.10;;;7.70;94.20;;;;;;5098065;28;20108;-81
2023/03/15 02:43:46;;;;;;;0.30;0.10;;;7.60;94.20;;;;;;5093637;28;20474;-79
2023/03/15 02:46:12;;;;;;;0.10;0.03;;;7.60;94.20;;;;;;5089645;28;20385;-80
2023/03/15 02:48:40;;;;;;;0.52;0.20;;;7.10;95.70;;;;;;5091207;28;20032;-81
2023/03/15 02:51:06;;;;;;;0.10;0.00;;;7.10;94.70;;;;;;5092939;28;20042;-81
2023/03/15 02:53:32;;;;;;;1.13;0.13;;;7.10;95.00;;;;;;5089540;28;20046;-80
2023/03/15 02:55:58;;;;;;;0.00;0.00;;;7.20;94.60;;;;;;5098559;28;20082;-78
2023/03/15 02:58:24;;;;;;;1.20;0.20;;;7.10;94.30;;;;;;5090639;28;20474;-81
2023/03/15 03:00:51;;;;;;;1.02;0.38;;;6.90;95.00;;;;;;5098931;28;20054;-80
2023/03/15 03:03:17;;;;;;;0.17;0.10;;;7.40;93.30;;;;;;5093107;28;20040;-81
2023/03/15 03:05:43;;;;;;;0.28;0.00;;;7.50;93.50;;;;;;5092335;28;20043;-81
2023/03/15 03:08:08;;;;;;;0.20;0.10;;;7.10;94.40;;;;;;5097530;28;20032;-81
2023/03/15 03:10:34;;;;;;;0.45;0.10;;;6.60;95.00;;;;;;5094747;28;20111;-80
2023/03/15 03:12:59;;;;;;;0.43;0.20;;;7.50;93.60;;;;;;5093840;28;20120;-81
2023/03/15 03:15:25;;;;;;;1.40;0.60;;;7.70;92.60;;;;;;5093951;28;20423;-81
2023/03/15 03:17:51;;;;;;;0.05;0.00;;;7.50;93.60;;;;;;5097650;28;20084;-81
2023/03/15 03:20:16;;;;;;;0.15;0.00;;;7.80;92.40;;;;;;5092287;28;20063;-79
2023/03/15 03:22:43;;;;;;;0.43;0.10;;;7.80;92.90;;;;;;5092537;28;20039;-82
2023/03/15 03:25:10;;;;;;;0.95;0.20;;;7.90;92.00;;;;;;5095908;28;20110;-80
2023/03/15 03:27:37;;;;;;;0.10;0.00;;;7.50;93.40;;;;;;5094325;28;20055;-81
2023/03/15 03:30:10;;;;;;;0.40;0.20;;;7.80;92.40;;;;;;5088756;28;20558;-81
2023/03/15 03:32:36;;;;;;;0.45;0.13;;;7.50;93.10;;;;;;5098473;28;20024;-81
2023/03/15 03:35:02;;;;;;;0.80;0.50;;;7.60;92.80;;;;;;5099185;28;20114;-80
2023/03/15 03:37:29;;;;;;;1.02;0.20;;;7.00;94.60;;;;;;5096149;28;20139;-82
2023/03/15 03:39:55;;;;;;;0.32;0.10;;;7.00;94.30;;;;;;5092615;28;20090;-81
2023/03/15 03:42:21;;;;;;;1.05;0.20;;;7.10;93.10;;;;;;5103774;28;20066;-81
2023/03/15 03:44:49;;;;;;;0.55;0.15;;;7.60;92.60;;;;;;5100865;28;20063;-80
2023/03/15 03:47:14;;;;;;;0.30;0.20;;;7.50;92.30;;;;;;5096075;28;20034;-80
2023/03/15 03:49:40;;;;;;;0.10;0.10;;;7.60;92.40;;;;;;5096760;28;20031;-81
2023/03/15 03:52:06;;;;;;;0.38;0.10;;;7.30;93.00;;;;;;5088225;28;20055;-81
2023/03/15 03:54:31;;;;;;;0.80;0.40;;;7.70;91.80;;;;;;5095545;28;20033;-81
2023/03/15 03:56:57;;;;;;;0.10;0.00;;;7.60;91.80;;;;;;5099430;28;20064;-81
2023/03/15 03:59:23;;;;;;;0.22;0.10;;;7.50;92.60;;;;;;5100293;28;20028;-80
2023/03/15 04:01:50;;;;;;;0.50;0.20;;;7.00;93.20;;;;;;5097282;28;20028;-81
2023/03/15 04:04:15;;;;;;;0.00;0.00;;;7.40;91.50;;;;;;5099801;28;20044;-80
2023/03/15 04:06:44;;;;;;;0.43;0.10;;;7.40;92.70;;;;;;5090629;27;20028;-79
2023/03/15 04:09:11;;;;;;;0.30;0.00;;;7.00;93.20;;;;;;5093663;27;20028;-81
2023/03/15 04:11:41;;;;;;;0.77;0.15;;;6.80;93.00;;;;;;5095116;27;20114;-81
2023/03/15 04:14:08;;;;;;;0.20;0.08;;;7.20;92.00;;;;;;5084917;28;20024;-80
2023/03/15 04:16:34;;;;;;;1.30;0.30;;;7.30;92.10;;;;;;5086291;28;20024;-84
2023/03/15 04:18:59;;;;;;;0.30;0.10;;;7.10;92.50;;;;;;5085069;28;20039;-82
2023/03/15 04:21:25;;;;;;;3.47;0.85;;;6.80;93.00;;;;;;5082976;28;20028;-81
2023/03/15 04:23:51;;;;;;;0.10;0.00;;;6.40;94.30;;;;;;5091767;28;20063;-81
2023/03/15 04:26:16;;;;;;;0.08;0.05;;;6.90;92.60;;;;;;5092757;28;20028;-81
2023/03/15 04:28:42;;;;;;;0.65;0.20;;;6.70;93.50;;;;;;5087272;28;20473;-81
2023/03/15 04:31:09;;;;;;;0.40;0.13;;;7.20;91.50;;;;;;5087026;28;20507;-81
2023/03/15 04:33:35;;;;;;;0.10;0.10;;;6.90;92.70;;;;;;5101414;28;20038;-82
2023/03/15 04:36:01;;;;;;;1.33;0.57;;;6.40;93.20;;;;;;5089369;28;20036;-82
2023/03/15 04:38:27;;;;;;;0.30;0.10;;;6.30;93.60;;;;;;5091136;28;20456;-81
2023/03/15 04:40:53;;;;;;;0.00;0.00;;;6.20;93.10;;;;;;5084189;28;20181;-81
2023/03/15 04:43:19;;;;;;;0.30;0.10;;;6.60;92.80;;;;;;5087232;28;20118;-81
2023/03/15 04:45:45;;;;;;;0.45;0.17;;;6.40;93.10;;;;;;5094076;28;20107;-82
2023/03/15 04:48:10;;;;;;;0.03;0.03;;;6.30;93.00;;;;;;5098320;28;20027;-81
2023/03/15 04:50:36;;;;;;;0.10;0.05;;;6.50;92.50;;;;;;5086812;28;20031;-81
2023/03/15 04:53:02;;;;;;;0.13;0.05;;;6.40;92.80;;;;;;5094717;28;20042;-80
2023/03/15 04:55:27;;;;;;;0.15;0.13;;;6.30;93.00;;;;;;5086585;28;20024;-81
2023/03/15 04:57:54;;;;;;;0.17;0.10;;;6.50;92.50;;;;;;5086082;28;20233;-81
2023/03/15 05:00:20;;;;;;;0.10;0.00;;;6.50;92.50;;;;;;5093879;28;20062;-81
2023/03/15 05:02:53;;;;;;;0.20;0.00;;;6.60;92.40;;;;;;5088946;28;20160;-84
2023/03/15 05:05:20;;;;;;;0.08;0.00;;;6.40;93.10;;;;;;5085015;28;20088;-81
2023/03/15 05:07:46;;;;;;;0.93;0.30;;;6.50;93.00;;;;;;5085369;28;20035;-79
2023/03/15 05:10:11;;;;;;;0.65;0.20;;;6.30;93.20;;;;;;5085571;28;20020;-81
2023/03/15 05:12:37;;;;;;;0.20;0.03;;;6.60;92.40;;;;;;5088207;28;20131;-81
2023/03/15 05:15:03;;;;;;;0.32;0.20;;;6.90;92.60;;;;;;5084365;28;20032;-82
2023/03/15 05:17:29;;;;;;;1.45;0.30;;;6.80;92.50;;;;;;5089668;28;20065;-83
2023/03/15 05:19:54;;;;;;;0.40;0.15;;;7.00;92.30;;;;;;5089655;28;20085;-82
2023/03/15 05:22:24;;;;;;;0.85;0.30;;;7.30;91.50;;;;;;5095127;28;20046;-80
2023/03/15 05:24:50;;;;;;;0.73;0.20;;;7.50;91.30;;;;;;5089599;28;20028;-82
2023/03/15 05:27:16;;;;;;;0.20;0.08;;;7.00;92.00;;;;;;5088212;28;20031;-82
2023/03/15 05:29:41;;;;;;;1.65;0.68;;;6.90;92.40;;;;;;5091870;28;20036;-81
2023/03/15 05:32:07;;;;;;;0.55;0.22;;;7.20;91.60;;;;;;5087970;28;20076;-82
2023/03/15 05:34:33;;;;;;;1.52;0.40;;;7.20;91.80;;;;;;5083602;28;20035;-79
2023/03/15 05:36:59;;;;;;;0.75;0.20;;;7.00;92.20;;;;;;5087118;28;20097;-82
2023/03/15 05:39:25;;;;;;;0.77;0.20;;;6.80;92.30;;;;;;5094134;28;20568;-80
2023/03/15 05:41:51;;;;;;;0.35;0.20;;;7.00;91.90;;;;;;5085568;28;20156;-80
2023/03/15 05:44:17;;;;;;;0.68;0.17;;;7.00;92.30;;;;;;5086451;28;20584;-82
2023/03/15 05:46:43;;;;;;;0.52;0.10;;;6.30;93.50;;;;;;5091279;28;20527;-80
2023/03/15 05:49:08;;;;;;;0.65;0.20;;;7.20;91.50;;;;;;5097598;28;20035;-80
2023/03/15 05:51:34;;;;;;;0.47;0.22;;;7.50;91.00;;;;;;5093756;28;20036;-80
2023/03/15 05:54:00;;;;;;;0.77;0.13;;;7.60;90.80;;;;;;5097770;28;20070;-84
2023/03/15 05:56:25;;;;;;;3.55;0.10;;;7.40;91.40;;;;;;5099430;28;20107;-81
2023/03/15 05:58:51;;;;;;;0.52;0.20;;;7.60;90.80;;;;;;5096617;28;20043;-80
2023/03/15 06:01:17;;;;;;;0.40;0.10;;;7.70;90.60;;;;;;5093333;28;20066;-82
2023/03/15 06:03:43;;;;;;;0.57;0.30;;;7.70;90.90;;;;;;5095362;28;20028;-82
2023/03/15 06:06:09;;;;;;;2.58;0.22;;;7.60;90.40;;;;;;5089325;28;20028;-84
2023/03/15 06:08:34;;;;;;;2.78;0.65;;;7.80;90.30;;;;;;5085491;28;20072;-82
2023/03/15 06:11:00;;;;;;;1.25;0.38;;;8.00;89.50;;;;;;5095546;27;20846;-82
2023/03/15 06:13:26;;;;;;;0.40;0.20;;;7.90;90.10;;;;;;5086616;28;20024;-81
2023/03/15 06:15:51;;;;;;;0.43;0.20;;;7.80;90.10;;;;;;5085381;28;20028;-83
2023/03/15 06:18:17;;;;;;;0.57;0.30;;;7.90;90.00;;;;;;5085416;27;20131;-80
2023/03/15 06:20:43;;;;;;;1.70;0.65;;;8.00;88.30;;;;;;5092772;27;20070;-81
2023/03/15 06:23:09;;;;;;;0.13;0.10;;;8.20;87.00;;;;;;5090866;27;20493;-81
2023/03/15 06:25:35;;;;;;;0.77;0.20;;;8.20;87.50;;;;;;5088901;27;20024;-80
2023/03/15 06:28:00;;;;;;;0.77;0.30;;;8.10;88.70;;;;;;5091376;28;20032;-81
2023/03/15 06:30:26;;;;;;;1.30;0.30;;;8.00;88.80;;;;;;5091390;28;20032;-75
2023/03/15 06:32:53;;;;;;;3.03;0.35;;;7.50;90.60;;;;;;5088403;28;20123;-81
2023/03/15 06:35:18;;;;;;;1.10;0.35;;;7.70;90.00;;;;;;5096446;28;20027;-79
2023/03/15 06:37:44;;;;;;;0.50;0.28;;;7.90;88.70;;;;;;5097008;28;20023;-80
2023/03/15 06:40:10;;;;;;;0.85;0.20;;;8.00;88.90;;;;;;5087598;28;20115;-80
2023/03/15 06:42:38;;;;;;;0.75;0.20;;;8.10;88.20;;;;;;5091181;28;20032;-80
2023/03/15 06:45:05;;;;;;;1.13;0.35;;;8.10;87.60;;;;;;5086471;28;20169;-80
2023/03/15 06:47:31;;;;;;;0.50;0.20;;;8.10;88.30;;;;;;5085753;28;20409;-81
2023/03/15 06:49:56;;;;;;;1.98;0.68;;;8.10;88.60;;;;;;5088949;28;20028;-81
2023/03/15 06:52:22;;;;;;;0.98;0.30;;;8.20;87.20;;;;;;5105531;28;20030;-80
2023/03/15 06:54:48;;;;;;;0.55;0.20;;;8.20;87.50;;;;;;5094819;28;20072;-80
2023/03/15 06:57:13;;;;;;;0.50;0.10;;;8.00;90.10;;;;;;5093205;28;20058;-81
2023/03/15 06:59:39;;;;;;;0.13;0.00;;;8.20;85.10;;;;;;5085325;28;20024;-85
2023/03/15 07:02:06;;;;;;;0.70;0.13;;;8.40;82.00;;;;;;5086439;28;20027;-82
2023/03/15 07:04:31;;;;;;;0.10;0.00;;;8.70;81.30;;;;;;5095379;28;20024;-81
2023/03/15 07:06:57;;;;;;;0.20;0.10;;;9.00;78.70;;;;;;5088105;28;20023;-80
2023/03/15 07:09:23;;;;;;;0.60;0.25;;;8.90;80.10;;;;;;5093502;28;20481;-78
2023/03/15 07:11:48;;;;;;;0.10;0.00;;;8.90;81.20;;;;;;5094299;28;20062;-81
2023/03/15 07:14:14;;;;;;;0.15;0.08;;;9.10;78.10;;;;;;5097693;28;20032;-82
2023/03/15 07:16:39;;;;;;;0.75;0.00;;;9.20;77.70;;;;;;5097780;28;20024;-80
2023/03/15 07:19:05;;;;;;;0.77;0.20;;;9.30;77.40;;;;;;5095465;28;20028;-78
2023/03/15 07:21:31;;;;;;;0.00;0.00;;;9.40;77.10;;;;;;5094258;28;20035;-82
2023/03/15 07:23:56;;;;;;;0.65;0.10;;;9.30;76.80;;;;;;5094327;28;20428;-78
2023/03/15 07:26:22;;;;;;;0.25;0.00;;;9.40;74.60;;;;;;5089360;28;20057;-79
2023/03/15 07:28:48;;;;;;;0.00;0.00;;;9.60;73.30;;;;;;5097830;28;20040;-81
2023/03/15 07:31:14;;;;;;;0.40;0.08;;;9.70;72.60;;;;;;5090852;28;20115;-80
2023/03/15 07:33:39;;;;;;;0.60;0.03;;;9.60;72.60;;;;;;5090729;28;20057;-79
2023/03/15 07:36:06;;;;;;;0.55;0.10;;;9.70;71.50;;;;;;5090287;28;20115;-79
2023/03/15 07:38:33;;;;;;;0.00;0.00;;;9.70;72.60;;;;;;5089417;28;20165;-80
2023/03/15 07:41:04;;;;;;;0.00;0.00;;;9.70;73.10;;;;;;5091174;28;20040;-80
2023/03/15 07:43:31;;;;;;;0.63;0.08;;;9.70;71.90;;;;;;5093599;28;20031;-78
2023/03/15 07:45:56;;;;;;;0.30;0.10;;;9.70;72.80;;;;;;5099487;28;20746;-80
2023/03/15 07:48:22;;;;;;;0.32;0.08;;;9.70;71.50;;;;;;5091941;28;20043;-79
2023/03/15 07:50:48;;;;;;;0.00;0.00;;;9.70;71.10;;;;;;5096922;28;20381;-80
2023/03/15 07:53:14;;;;;;;0.20;0.10;;;9.70;70.10;;;;;;5093738;28;20027;-83
2023/03/15 07:55:39;;;;;;;0.28;0.10;;;9.70;70.80;;;;;;5092976;28;20032;-79
2023/03/15 07:58:05;;;;;;;0.75;0.00;;;9.70;69.70;;;;;;5084832;28;20028;-79
2023/03/15 08:00:31;;;;;;;0.17;0.00;;;9.60;71.20;;;;;;5089597;28;20023;-86
2023/03/15 08:02:57;;;;;;;0.98;0.20;;;9.80;72.20;;;;;;5096443;28;20714;-79
2023/03/15 08:05:23;;;;;;;0.47;0.10;;;9.80;68.50;;;;;;5086693;28;20043;-81
2023/03/15 08:07:50;;;;;;;0.00;0.00;;;9.80;68.50;;;;;;5098783;28;20032;-82
2023/03/15 08:10:17;;;;;;;1.23;0.10;;;9.70;68.70;;;;;;5089081;28;20160;-80
2023/03/15 08:12:43;;;;;;;0.22;0.10;;;9.70;68.00;;;;;;5081925;28;20476;-80
2023/03/15 08:15:13;;;;;;;0.17;0.00;;;9.80;69.10;;;;;;5082987;28;20401;-82
2023/03/15 08:17:39;;;;;;;0.47;0.03;;;9.90;67.70;;;;;;5087190;28;20032;-81
2023/03/15 08:20:10;;;;;;;1.02;0.20;;;9.80;68.90;;;;;;5090405;28;20027;-81
2023/03/15 08:22:36;;;;;;;0.05;0.05;;;9.80;65.90;;;;;;5100684;28;20469;-85
2023/03/15 08:25:02;;;;;;;0.00;0.00;;;9.90;67.20;;;;;;5101067;28;20032;-84
2023/03/15 08:27:27;;;;;;;0.45;0.00;;;10.00;66.70;;;;;;5087873;28;20058;-80
2023/03/15 08:29:53;;;;;;;0.30;0.10;;;9.90;66.20;;;;;;5088214;28;20062;-81
2023/03/15 08:32:20;;;;;;;0.13;0.05;;;10.00;63.60;;;;;;5090659;28;20596;-81
2023/03/15 08:34:45;;;;;;;0.00;0.00;;;10.00;64.00;;;;;;5091001;28;20240;-80
2023/03/15 08:37:11;;;;;;;1.15;0.30;;;9.90;61.40;;;;;;5085817;28;20028;-81
2023/03/15 08:39:38;;;;;;;0.10;0.10;;;9.90;64.20;;;;;;5084239;28;20056;-81
2023/03/15 08:42:04;;;;;;;0.57;0.10;;;10.00;62.80;;;;;;5083432;28;20032;-79
2023/03/15 08:44:30;;;;;;;0.35;0.08;;;10.00;63.90;;;;;;5097982;28;20522;-81
2023/03/15 08:46:55;;;;;;;0.50;0.10;;;10.00;62.90;;;;;;5088116;28;21764;-82
2023/03/15 08:49:21;;;;;;;0.00;0.00;;;10.00;61.20;;;;;;5085998;28;20435;-81
2023/03/15 08:51:47;;;;;;;0.00;0.00;;;10.10;60.90;;;;;;5086646;28;22149;-82
2023/03/15 08:54:15;;;;;;;0.28;0.17;;;10.10;61.00;;;;;;5091569;28;20524;-82
2023/03/15 08:56:41;;;;;;;0.10;0.10;;;10.10;59.70;;;;;;5098239;28;20346;-82
2023/03/15 08:59:08;;;;;;;0.30;0.00;;;10.20;61.80;;;;;;5093556;28;20038;-80
2023/03/15 09:01:33;;;;;;;0.00;0.00;;;10.30;61.00;;;;;;5094096;28;20024;-81
2023/03/15 09:04:00;;;;;;;0.30;0.08;;;10.40;59.00;;;;;;5092709;28;20142;-81
2023/03/15 09:06:26;;;;;;;0.57;0.30;;;10.20;58.70;;;;;;5091092;28;20028;-81
2023/03/15 09:08:55;;;;;;;0.28;0.10;;;10.20;58.90;;;;;;5093948;28;20658;-81
2023/03/15 09:11:21;;;;;;;0.65;0.20;;;10.30;58.80;;;;;;5093020;28;20066;-82
2023/03/15 09:13:47;;;;;;;0.90;0.30;;;10.20;58.10;;;;;;5095008;28;20028;-82
2023/03/15 09:16:13;;;;;;;0.25;0.10;;;10.30;58.60;;;;;;5107583;28;20028;-81
2023/03/15 09:18:40;;;;;;;0.10;0.00;;;10.30;58.60;;;;;;5101540;28;20551;-80
2023/03/15 09:21:06;;;;;;;0.43;0.10;;;10.30;58.10;;;;;;5095098;28;20518;-82
2023/03/15 09:23:32;;;;;;;0.00;0.00;;;10.40;57.40;;;;;;5099679;27;20119;-82
2023/03/15 09:25:58;;;;;;;0.93;0.10;;;10.30;57.20;;;;;;5101576;27;20024;-81
2023/03/15 09:28:26;;;;;;;0.55;0.20;;;10.50;65.70;;;;;;5094782;28;20039;-82
2023/03/15 09:30:52;;;;;;;0.55;0.30;;;10.70;57.80;;;;;;5094302;28;20027;-83
2023/03/15 09:33:21;;;;;;;1.02;0.20;;;10.70;58.40;;;;;;5087261;28;20154;-83
2023/03/15 09:35:50;;;;;;;0.20;0.10;;;10.80;58.30;;;;;;5087168;28;20026;-81
2023/03/15 09:38:16;;;;;;;1.85;0.20;;;10.90;59.70;;;;;;5097154;28;20601;-82
2023/03/15 09:40:46;;;;;;;0.40;0.10;;;11.00;57.80;;;;;;5098918;28;20032;-81
2023/03/15 09:43:14;;;;;;;0.90;0.17;;;11.00;57.10;;;;;;5101398;28;20114;-83
2023/03/15 09:46:01;;;;;;;0.10;0.10;;;11.20;58.20;;;;;;5096675;28;20047;-82
2023/03/15 09:48:34;;;;;;;0.08;0.00;;;11.30;57.70;;;;;;5089351;28;20084;-81
2023/03/15 09:51:16;;;;;;;1.90;0.17;;;11.20;56.90;;;;;;5102580;28;20039;-85
2023/03/15 09:53:56;;;;;;;0.22;0.10;;;11.10;56.10;;;;;;5093402;28;20031;-83
2023/03/15 09:56:37;;;;;;;0.55;0.20;;;11.20;56.80;;;;;;5094899;28;20126;-83
2023/03/15 09:59:04;;;;;;;0.00;0.00;;;11.40;55.80;;;;;;5094405;28;20031;-81
2023/03/15 10:01:41;;;;;;;0.55;0.20;;;11.30;54.30;;;;;;5090288;28;20381;-82
2023/03/15 10:04:22;;;;;;;0.85;0.10;;;11.30;56.10;;;;;;5088766;28;20036;-83
2023/03/15 10:06:54;;;;;;;0.77;0.15;;;11.20;54.30;;;;;;5097887;28;20020;-83
2023/03/15 10:09:22;;;;;;;0.47;0.10;;;11.40;55.60;;;;;;5089345;27;20048;-82
2023/03/15 10:11:51;;;;;;;0.40;0.10;;;11.30;55.60;;;;;;5088229;28;20024;-82
2023/03/15 10:14:28;;;;;;;0.77;0.20;;;11.20;54.30;;;;;;5094398;28;20047;-84
2023/03/15 10:16:54;;;;;;;0.10;0.10;;;11.30;53.40;;;;;;5102547;28;20036;-87
2023/03/15 10:19:43;;;;;;;0.30;0.10;;;11.30;52.40;;;;;;5097058;28;20049;-84
2023/03/15 10:22:11;;;;;;;0.43;0.10;;;11.20;51.80;;;;;;5089363;27;20056;-82
2023/03/15 10:25:16;;;;;;;1.52;0.30;;;11.50;52.70;;;;;;5098908;28;20489;-83
2023/03/15 10:28:00;;;;;;;2.03;0.47;;;11.30;51.70;;;;;;5088336;28;20031;-84
2023/03/15 10:30:31;;;;;;;0.52;0.20;;;11.50;52.50;;;;;;5087605;28;20489;-83
2023/03/15 10:33:34;;;;;;;0.38;0.10;;;11.40;50.40;;;;;;5089601;28;21179;-84
2023/03/15 10:36:01;;;;;;;0.98;0.10;;;11.30;52.40;;;;;;5090231;28;20028;-82
2023/03/15 10:38:28;;;;;;;0.43;0.17;;;11.30;51.00;;;;;;5087644;28;20044;-87
2023/03/15 10:40:55;;;;;;;0.20;0.08;;;11.80;52.60;;;;;;5086810;28;20031;-82
2023/03/15 10:43:35;;;;;;;0.73;0.40;;;11.80;52.80;;;;;;5089987;28;20032;-82
2023/03/15 10:46:07;;;;;;;0.80;0.20;;;11.80;50.70;;;;;;5088996;28;20396;-83
2023/03/15 10:49:05;;;;;;;0.52;0.20;;;12.00;52.80;;;;;;5085814;28;21695;-83
2023/03/15 10:51:32;;;;;;;0.55;0.03;;;12.60;50.60;;;;;;5095095;27;20035;-84
2023/03/15 10:54:05;;;;;;;0.45;0.20;;;11.90;49.10;;;;;;5084039;28;20078;-83
2023/03/15 10:56:35;;;;;;;6.72;0.30;;;11.90;50.60;;;;;;5093169;28;20470;-86
2023/03/15 10:59:01;;;;;;;0.70;0.20;;;11.90;51.40;;;;;;5086440;28;20068;-81
2023/03/15 11:01:33;;;;;;;0.63;0.13;;;12.20;51.90;;;;;;5097768;28;20444;-83
2023/03/15 11:04:15;;;;;;;0.82;0.20;;;12.10;49.90;;;;;;5095767;28;20525;-83
2023/03/15 11:07:01;;;;;;;0.77;0.10;;;11.70;48.40;;;;;;5090315;28;20040;-84
2023/03/15 11:09:38;;;;;;;0.52;0.17;;;11.60;48.30;;;;;;5090743;28;20104;-85
2023/03/15 11:12:06;;;;;;;1.08;0.50;;;11.80;48.60;;;;;;5094596;28;20110;-82
2023/03/15 11:14:39;;;;;;;0.85;0.10;;;11.70;47.80;;;;;;5089313;28;20035;-83
2023/03/15 11:17:07;;;;;;;1.70;0.20;;;11.90;49.60;;;;;;5095555;28;20067;-84
2023/03/15 11:19:40;;;;;;;1.35;0.20;;;12.00;48.20;;;;;;5096794;28;20038;-84
2023/03/15 11:22:11;;;;;;;0.10;0.10;;;12.00;49.90;;;;;;5094459;28;20020;-83
2023/03/15 11:24:38;;;;;;;0.60;0.10;;;11.80;47.50;;;;;;5087178;28;20055;-84
2023/03/15 11:27:12;;;;;;;0.70;0.20;;;12.00;50.00;;;;;;5087882;28;20028;-83
2023/03/15 11:29:41;;;;;;;1.55;0.30;;;12.10;47.40;;;;;;5084687;28;20040;-85
2023/03/15 11:32:17;;;;;;;1.05;0.30;;;12.00;47.50;;;;;;5091077;28;20543;-82
2023/03/15 11:35:01;;;;;;;0.30;0.15;;;12.20;47.30;;;;;;5092696;28;20490;-83
2023/03/15 11:37:48;;;;;;;0.35;0.10;;;12.60;50.20;;;;;;5102156;28;20119;-83
2023/03/15 11:40:25;;;;;;;1.42;0.57;;;12.70;47.80;;;;;;5093687;28;20036;-84
2023/03/15 11:42:56;;;;;;;0.52;0.17;;;12.30;47.30;;;;;;5095812;28;20035;-85
2023/03/15 11:45:32;;;;;;;0.60;0.10;;;12.30;47.70;;;;;;5087155;28;20028;-84
2023/03/15 11:48:10;;;;;;;1.17;0.28;;;12.20;45.70;;;;;;5092243;28;20028;-84
2023/03/15 11:50:36;;;;;;;0.57;0.15;;;12.20;44.70;;;;;;5099098;28;20045;-83
2023/03/15 11:53:05;;;;;;;0.43;0.20;;;12.20;46.70;;;;;;5099895;28;20028;-85
2023/03/15 11:55:32;;;;;;;0.50;0.10;;;12.50;48.70;;;;;;5092737;28;20028;-83
2023/03/15 11:58:26;;;;;;;0.65;0.30;;;12.50;47.20;;;;;;5092259;28;20038;-81
2023/03/15 12:00:55;;;;;;;0.57;0.05;;;12.80;48.00;;;;;;5096398;28;20098;-82
2023/03/15 12:03:27;;;;;;;1.10;0.55;;;12.60;47.00;;;;;;5089687;28;20549;-81
2023/03/15 12:06:03;;;;;;;1.02;0.20;;;12.80;47.50;;;;;;5092546;28;20035;-80
2023/03/15 12:08:34;;;;;;;0.63;0.20;;;12.70;47.40;;;;;;5095373;27;20036;-81
2023/03/15 12:11:08;;;;;;;0.82;0.40;;;12.30;45.60;;;;;;5089713;28;20189;-81
2023/03/15 12:13:34;;;;;;;0.57;0.20;;;12.40;45.80;;;;;;5085359;28;20028;-82
2023/03/15 12:16:00;;;;;;;0.85;0.17;;;12.40;46.30;;;;;;5085054;28;20459;-81
2023/03/15 12:18:40;;;;;;;0.38;0.20;;;12.40;47.10;;;;;;5086441;28;20023;-81
2023/03/15 12:21:11;;;;;;;2.17;0.43;;;12.70;48.10;;;;;;5091213;28;20028;-81
2023/03/15 12:23:45;;;;;;;0.57;0.15;;;12.90;47.80;;;;;;5092059;28;20027;-80
2023/03/15 12:26:41;;;;;;;0.52;0.20;;;13.00;49.90;;;;;;5083488;28;20024;-82
2023/03/15 12:29:14;;;;;;;0.20;0.10;;;12.60;46.10;;;;;;5088699;28;20136;-81
2023/03/15 12:32:03;;;;;;;1.50;0.37;;;12.80;47.30;;;;;;5085392;28;20036;-77
2023/03/15 12:34:28;;;;;;;1.60;0.30;;;13.10;48.20;;;;;;5088357;28;20031;-78
2023/03/15 12:37:03;;;;;;;0.73;0.15;;;13.10;48.10;;;;;;5082657;28;20032;-78
2023/03/15 12:39:39;;;;;;;5.93;0.22;;;12.90;46.00;;;;;;5093495;28;20051;-78
2023/03/15 12:42:05;;;;;;;1.60;0.40;;;13.00;48.00;;;;;;5080651;28;20035;-78
2023/03/15 12:44:31;;;;;;;0.55;0.25;;;12.80;45.70;;;;;;5089125;28;20028;-78
2023/03/15 12:47:01;;;;;;;0.65;0.20;;;12.90;46.20;;;;;;5092730;28;20028;-78
2023/03/15 12:49:35;;;;;;;3.42;0.32;;;12.80;47.20;;;;;;5097955;28;20036;-78
2023/03/15 12:52:14;;;;;;;1.00;0.10;;;12.90;45.50;;;;;;5093018;28;20309;-78
2023/03/15 12:54:45;;;;;;;0.88;0.17;;;13.10;45.80;;;;;;5097799;28;20389;-78
2023/03/15 12:57:20;;;;;;;0.75;0.10;;;12.90;46.00;;;;;;5091938;28;20434;-77
2023/03/15 12:59:56;;;;;;;0.85;0.17;;;13.10;46.80;;;;;;5094661;28;20024;-78
2023/03/15 13:02:47;;;;;;;0.82;0.20;;;13.00;45.50;;;;;;5094711;28;20020;-77